Time;durP1;ratioP1;P1;durP2;ratioP2;P2;SDS_P1;SDS_P2;PMS_P1;PMS_P2;Temp;Humidity;BMP_temperature;BMP_pressure;BME280_temperature;BME280_humidity;BME280_pressure;Samples;Min_cycle;Max_cycle;Signal;HPM_P1;HPM_P2
2024/03/23 00:01:29;;;;;;;;;;;;;;;6.10;53.85;94728.25;4940811;28;19930;-77
2024/03/23 00:03:55;;;;;;;;;;;;;;;5.98;53.77;94733.09;4941670;28;20347;-75
2024/03/23 00:06:21;;;;;;;;;;;;;;;5.94;53.58;94726.50;4941485;28;19950;-76
2024/03/23 00:08:47;;;;;;;;;;;;;;;5.89;51.54;94720.91;4941447;29;19993;-75
2024/03/23 00:11:12;;;;;;;;;;;;;;;5.86;54.35;94711.50;4941580;28;20818;-76
2024/03/23 00:13:38;;;;;;;;;;;;;;;5.80;52.18;94705.09;4941345;28;19930;-75
2024/03/23 00:16:04;;;;;;;;;;;;;;;5.82;53.70;94692.53;4941605;29;19926;-74
2024/03/23 00:18:30;;;;;;;;;;;;;;;5.89;54.94;94690.03;4941003;28;19930;-75
2024/03/23 00:20:57;;;;;;;;;;;;;;;6.05;54.13;94685.69;4941361;28;19926;-76
2024/03/23 00:23:22;;;;;;;;;;;;;;;6.12;54.86;94665.47;4941439;28;19930;-75
2024/03/23 00:25:48;;;;;;;;;;;;;;;6.22;54.70;94666.09;4940718;28;19929;-75
2024/03/23 00:28:14;;;;;;;;;;;;;;;6.29;54.22;94658.28;4941195;29;19944;-75
2024/03/23 00:30:40;;;;;;;;;;;;;;;6.33;53.61;94661.41;4941732;28;19985;-76
2024/03/23 00:33:06;;;;;;;;;;;;;;;6.35;53.80;94664.69;4941495;29;19934;-77
2024/03/23 00:35:31;;;;;;;;;;;;;;;6.37;53.36;94668.78;4941510;28;19930;-75
2024/03/23 00:37:57;;;;;;;;;;;;;;;6.32;51.74;94657.94;4941037;28;20361;-77
2024/03/23 00:40:23;;;;;;;;;;;;;;;6.30;51.53;94661.75;4941075;29;20362;-76
2024/03/23 00:42:49;;;;;;;;;;;;;;;6.33;53.73;94661.41;4940909;28;19931;-74
2024/03/23 00:45:14;;;;;;;;;;;;;;;6.42;54.14;94655.06;4941140;28;19923;-76
2024/03/23 00:47:40;;;;;;;;;;;;;;;6.53;53.04;94643.28;4941189;29;20513;-75
2024/03/23 00:50:06;;;;;;;;;;;;;;;6.58;52.05;94640.09;4940554;28;19993;-75
2024/03/23 00:52:31;;;;;;;;;;;;;;;6.48;52.92;94641.19;4939284;29;19926;-77
2024/03/23 00:54:57;;;;;;;;;;;;;;;6.52;52.65;94638.19;4942243;28;19922;-76
2024/03/23 00:57:22;;;;;;;;;;;;;;;6.59;52.47;94634.66;4940945;28;19926;-75
2024/03/23 00:59:47;;;;;;;;;;;;;;;6.68;53.15;94627.47;4940753;28;20470;-74
2024/03/23 01:02:12;;;;;;;;;;;;;;;6.82;53.08;94631.16;4940576;28;19927;-75
2024/03/23 01:04:38;;;;;;;;;;;;;;;6.90;52.03;94635.53;4941374;29;19954;-77
2024/03/23 01:07:03;;;;;;;;;;;;;;;6.98;52.68;94627.56;4940705;28;20443;-76
2024/03/23 01:09:28;;;;;;;;;;;;;;;7.07;52.07;94623.00;4940926;28;20330;-75
2024/03/23 01:11:54;;;;;;;;;;;;;;;7.11;52.29;94611.03;4941136;28;20265;-76
2024/03/23 01:14:19;;;;;;;;;;;;;;;7.19;52.05;94612.78;4940222;28;19936;-75
2024/03/23 01:16:44;;;;;;;;;;;;;;;7.25;51.35;94622.63;4941059;28;19927;-75
2024/03/23 01:19:09;;;;;;;;;;;;;;;7.32;51.48;94617.47;4940659;28;19974;-75
2024/03/23 01:21:35;;;;;;;;;;;;;;;7.33;51.12;94610.31;4940426;28;19929;-75
2024/03/23 01:24:00;;;;;;;;;;;;;;;7.25;51.32;94601.47;4938693;29;19926;-74
2024/03/23 01:26:25;;;;;;;;;;;;;;;6.99;52.11;94597.44;4940301;28;20725;-75
2024/03/23 01:28:50;;;;;;;;;;;;;;;6.97;52.14;94594.13;4940392;28;19974;-74
2024/03/23 01:31:16;;;;;;;;;;;;;;;7.02;52.56;94588.31;4955042;28;19923;-76
2024/03/23 01:33:41;;;;;;;;;;;;;;;7.20;51.91;94590.59;4942899;28;20020;-75
2024/03/23 01:36:06;;;;;;;;;;;;;;;7.22;51.21;94585.13;4944670;28;19954;-77
2024/03/23 01:38:31;;;;;;;;;;;;;;;7.31;51.93;94577.94;4944366;28;19978;-76
2024/03/23 01:40:57;;;;;;;;;;;;;;;6.70;52.05;94574.41;4944421;28;19923;-77
2024/03/23 01:43:22;;;;;;;;;;;;;;;7.18;52.03;94568.81;4944028;28;20521;-77
2024/03/23 01:45:48;;;;;;;;;;;;;;;7.33;51.49;94560.00;4944631;28;20529;-75
2024/03/23 01:48:13;;;;;;;;;;;;;;;7.60;51.08;94565.66;4944257;28;20223;-75
2024/03/23 01:50:38;;;;;;;;;;;;;;;7.66;50.99;94560.44;4944191;28;20239;-76
2024/03/23 01:53:05;;;;;;;;;;;;;;;7.61;51.39;94562.81;4940636;29;20403;-75
2024/03/23 01:55:31;;;;;;;;;;;;;;;7.55;51.03;94552.97;4946118;28;19930;-76
2024/03/23 01:57:56;;;;;;;;;;;;;;;7.44;52.16;94558.75;4943741;28;19927;-77
2024/03/23 02:00:23;;;;;;;;;;;;;;;6.77;54.33;94572.69;4938956;29;19934;-75
2024/03/23 02:02:48;;;;;;;;;;;;;;;6.13;56.95;94570.16;4943397;28;19930;-76
2024/03/23 02:05:13;;;;;;;;;;;;;;;4.71;60.28;94561.16;4958115;28;20104;-75
2024/03/23 02:07:39;;;;;;;;;;;;;;;4.10;62.52;94567.59;4943141;29;19977;-75
2024/03/23 02:10:05;;;;;;;;;;;;;;;3.13;64.79;94572.22;4943539;28;20526;-74
2024/03/23 02:12:31;;;;;;;;;;;;;;;2.27;67.30;94575.44;4942648;29;20670;-74
2024/03/23 02:14:56;;;;;;;;;;;;;;;2.36;67.87;94565.84;4943455;28;20001;-74
2024/03/23 02:17:21;;;;;;;;;;;;;;;1.99;69.21;94569.44;4943165;28;19977;-75
2024/03/23 02:19:46;;;;;;;;;;;;;;;1.21;71.20;94568.94;4943799;29;19953;-74
2024/03/23 02:22:12;;;;;;;;;;;;;;;0.92;74.12;94564.63;4943547;28;19930;-78
2024/03/23 02:24:37;;;;;;;;;;;;;;;0.95;73.84;94559.09;4943744;29;19930;-77
2024/03/23 02:27:03;;;;;;;;;;;;;;;0.93;73.90;94569.75;4943440;28;19926;-73
2024/03/23 02:29:28;;;;;;;;;;;;;;;0.46;75.05;94576.63;4941700;28;19926;-74
2024/03/23 02:31:53;;;;;;;;;;;;;;;0.24;75.45;94572.50;4944170;29;19985;-75
2024/03/23 02:34:18;;;;;;;;;;;;;;;0.47;75.14;94580.03;4942407;28;19930;-77
2024/03/23 02:36:43;;;;;;;;;;;;;;;0.23;74.63;94573.47;4943928;28;19937;-76
2024/03/23 02:39:09;;;;;;;;;;;;;;;0.26;75.02;94574.97;4943229;28;20419;-75
2024/03/23 02:41:34;;;;;;;;;;;;;;;0.51;73.93;94581.41;4942828;28;20432;-76
2024/03/23 02:43:59;;;;;;;;;;;;;;;0.72;72.61;94577.81;4940368;28;19937;-77
2024/03/23 02:46:24;;;;;;;;;;;;;;;0.23;72.91;94575.25;4942513;28;20063;-75
2024/03/23 02:48:50;;;;;;;;;;;;;;;0.20;72.98;94576.34;4943650;28;20399;-73
2024/03/23 02:51:15;;;;;;;;;;;;;;;-0.15;72.83;94575.94;4943867;28;19922;-75
2024/03/23 02:53:41;;;;;;;;;;;;;;;-0.23;73.28;94563.53;4943017;28;19931;-76
2024/03/23 02:56:06;;;;;;;;;;;;;;;-0.33;73.14;94579.22;4944976;28;19972;-74
2024/03/23 02:58:31;;;;;;;;;;;;;;;-0.33;74.37;94567.94;4944810;28;20390;-75
2024/03/23 03:00:57;;;;;;;;;;;;;;;-0.51;74.82;94571.22;4941592;28;19922;-78
2024/03/23 03:03:22;;;;;;;;;;;;;;;-0.39;74.77;94565.88;4944403;28;20425;-73
2024/03/23 03:05:47;;;;;;;;;;;;;;;-0.55;74.78;94561.19;4945326;28;19958;-75
2024/03/23 03:08:12;;;;;;;;;;;;;;;-0.54;74.78;94557.59;4945057;28;19969;-77
2024/03/23 03:10:38;;;;;;;;;;;;;;;-0.22;74.04;94559.13;4945719;28;19922;-76
2024/03/23 03:13:03;;;;;;;;;;;;;;;-0.00;73.96;94554.63;4945318;28;19931;-74
2024/03/23 03:15:28;;;;;;;;;;;;;;;0.18;72.22;94550.31;4942156;28;19933;-74
2024/03/23 03:17:54;;;;;;;;;;;;;;;0.64;71.13;94559.31;4943330;28;19926;-73
2024/03/23 03:20:19;;;;;;;;;;;;;;;0.95;69.55;94566.94;4942321;29;19927;-76
2024/03/23 03:22:44;;;;;;;;;;;;;;;0.69;69.92;94563.16;4944555;28;19926;-72
2024/03/23 03:25:09;;;;;;;;;;;;;;;0.47;69.99;94554.69;4941311;28;19927;-76
2024/03/23 03:27:35;;;;;;;;;;;;;;;0.77;69.46;94540.66;4940840;29;20007;-75
2024/03/23 03:30:05;;;;;;;;;;;;;;;0.71;69.51;94539.44;4942298;28;19930;-74
2024/03/23 03:32:31;;;;;;;;;;;;;;;0.10;70.63;94534.47;4943107;28;19926;-74
2024/03/23 03:34:56;;;;;;;;;;;;;;;0.12;71.92;94536.97;4941595;28;20558;-74
2024/03/23 03:37:22;;;;;;;;;;;;;;;-0.15;72.17;94559.41;4943409;28;19958;-75
2024/03/23 03:39:47;;;;;;;;;;;;;;;0.24;71.47;94551.53;4943513;28;19954;-74
2024/03/23 03:42:12;;;;;;;;;;;;;;;0.24;71.06;94555.97;4957119;28;20255;-73
2024/03/23 03:44:37;;;;;;;;;;;;;;;-0.15;72.24;94556.78;4941830;29;20001;-73
2024/03/23 03:47:03;;;;;;;;;;;;;;;0.00;72.40;94544.94;4941687;28;20418;-72
2024/03/23 03:49:28;;;;;;;;;;;;;;;0.24;71.18;94545.50;4942088;28;20472;-72
2024/03/23 03:51:53;;;;;;;;;;;;;;;0.36;70.84;94536.53;4941875;29;19923;-73
2024/03/23 03:54:18;;;;;;;;;;;;;;;0.38;70.32;94541.63;4943894;28;19964;-74
2024/03/23 03:56:44;;;;;;;;;;;;;;;0.41;69.74;94542.16;4941710;28;19982;-74
2024/03/23 03:59:09;;;;;;;;;;;;;;;0.64;69.51;94554.09;4941572;28;19934;-74
2024/03/23 04:01:35;;;;;;;;;;;;;;;0.63;69.32;94547.19;4941439;28;20009;-72
2024/03/23 04:04:00;;;;;;;;;;;;;;;0.02;71.04;94545.66;4941537;28;19933;-74
2024/03/23 04:06:25;;;;;;;;;;;;;;;-0.16;72.60;94542.91;4939456;28;19926;-75
2024/03/23 04:08:51;;;;;;;;;;;;;;;0.12;71.99;94545.66;4941913;28;19927;-75
2024/03/23 04:11:16;;;;;;;;;;;;;;;-0.29;72.40;94561.47;4941571;28;20055;-72
2024/03/23 04:13:41;;;;;;;;;;;;;;;0.10;71.91;94552.78;4940299;28;19954;-71
2024/03/23 04:16:07;;;;;;;;;;;;;;;-0.15;71.52;94562.88;4941721;28;19918;-72
2024/03/23 04:18:32;;;;;;;;;;;;;;;-0.08;70.43;94557.91;4941936;28;19931;-73
2024/03/23 04:20:57;;;;;;;;;;;;;;;-0.58;71.62;94559.63;4941775;29;20345;-74
2024/03/23 04:23:22;;;;;;;;;;;;;;;-0.87;73.22;94555.16;4941091;28;20087;-72
2024/03/23 04:25:48;;;;;;;;;;;;;;;-1.34;73.86;94553.84;4941179;28;19956;-74
2024/03/23 04:28:13;;;;;;;;;;;;;;;-1.13;74.15;94553.81;4941627;29;19929;-72
2024/03/23 04:30:38;;;;;;;;;;;;;;;-0.41;72.22;94558.16;4941105;28;19961;-74
2024/03/23 04:33:04;;;;;;;;;;;;;;;-1.12;73.06;94559.88;4941416;28;20040;-73
2024/03/23 04:35:30;;;;;;;;;;;;;;;-1.31;74.60;94571.88;4941530;28;20491;-72
2024/03/23 04:38:01;;;;;;;;;;;;;;;-1.08;75.03;94587.38;4941134;28;20044;-72
2024/03/23 04:40:26;;;;;;;;;;;;;;;-1.53;75.60;94602.38;4940935;29;19933;-72
2024/03/23 04:42:51;;;;;;;;;;;;;;;-2.51;76.99;94612.84;4940663;28;20008;-72
2024/03/23 04:45:17;;;;;;;;;;;;;;;-2.53;78.10;94615.59;4940816;28;19923;-72
2024/03/23 04:47:42;;;;;;;;;;;;;;;-2.67;78.37;94621.03;4940881;28;19973;-72
2024/03/23 04:50:07;;;;;;;;;;;;;;;-2.86;79.52;94621.66;4940734;28;19934;-72
2024/03/23 04:52:33;;;;;;;;;;;;;;;-2.68;80.00;94627.22;4941594;28;19963;-73
2024/03/23 04:54:58;;;;;;;;;;;;;;;-3.13;80.37;94639.28;4939148;28;19960;-72
2024/03/23 04:57:23;;;;;;;;;;;;;;;-2.89;80.17;94652.19;4939586;28;19933;-72
2024/03/23 04:59:49;;;;;;;;;;;;;;;-3.18;80.19;94665.69;4940504;29;19944;-73
2024/03/23 05:02:14;;;;;;;;;;;;;;;-3.73;82.95;94670.63;4937111;28;20004;-72
2024/03/23 05:04:43;;;;;;;;;;;;;;;-3.21;81.82;94659.84;4923669;29;19973;-72
2024/03/23 05:07:08;;;;;;;;;;;;;;;-2.95;79.93;94649.25;4940334;28;19958;-73
2024/03/23 05:09:33;;;;;;;;;;;;;;;-3.02;78.91;94646.28;4955007;28;19930;-72
2024/03/23 05:12:00;;;;;;;;;;;;;;;-2.93;78.13;94653.38;4941452;28;19929;-72
2024/03/23 05:14:25;;;;;;;;;;;;;;;-2.80;77.39;94639.41;4940451;28;20001;-72
2024/03/23 05:16:50;;;;;;;;;;;;;;;-2.52;76.76;94653.72;4941001;28;20652;-73
2024/03/23 05:19:15;;;;;;;;;;;;;;;-2.71;76.32;94658.72;4940212;28;19936;-72
2024/03/23 05:21:41;;;;;;;;;;;;;;;-2.44;75.55;94652.28;4940761;28;20151;-72
2024/03/23 05:24:06;;;;;;;;;;;;;;;-2.13;74.32;94644.66;4940687;29;19984;-73
2024/03/23 05:26:33;;;;;;;;;;;;;;;-1.70;73.71;94631.69;4940285;28;19923;-73
2024/03/23 05:28:59;;;;;;;;;;;;;;;-1.40;73.06;94628.31;4941187;28;20486;-72
2024/03/23 05:31:24;;;;;;;;;;;;;;;-1.32;71.79;94619.84;4940253;28;20037;-73
2024/03/23 05:33:50;;;;;;;;;;;;;;;-0.95;70.72;94615.91;4940345;28;20730;-73
2024/03/23 05:36:15;;;;;;;;;;;;;;;-1.32;74.66;94622.47;4939428;29;19926;-72
2024/03/23 05:38:40;;;;;;;;;;;;;;;-0.64;70.59;94625.56;4940129;28;19932;-72
2024/03/23 05:41:05;;;;;;;;;;;;;;;-0.59;71.65;94620.75;4940670;29;20051;-72
2024/03/23 05:43:30;;;;;;;;;;;;;;;-0.37;67.62;94619.69;4940328;28;19926;-74
2024/03/23 05:45:56;;;;;;;;;;;;;;;-0.61;68.37;94638.38;4938856;29;20464;-74
2024/03/23 05:48:21;;;;;;;;;;;;;;;-0.89;68.74;94640.69;4939037;29;20288;-74
2024/03/23 05:50:47;;;;;;;;;;;;;;;-1.37;69.10;94642.91;4938400;29;20045;-74
2024/03/23 05:53:12;;;;;;;;;;;;;;;-1.25;70.00;94649.69;4940487;29;20751;-75
2024/03/23 05:55:38;;;;;;;;;;;;;;;-1.51;70.27;94665.75;4941053;28;20760;-74
2024/03/23 05:58:03;;;;;;;;;;;;;;;-1.57;70.40;94662.84;4938594;29;19963;-72
2024/03/23 06:00:28;;;;;;;;;;;;;;;-2.21;72.01;94679.16;4940308;28;19930;-75
2024/03/23 06:02:54;;;;;;;;;;;;;;;-2.31;73.67;94684.25;4940033;28;20013;-75
2024/03/23 06:05:19;;;;;;;;;;;;;;;-2.44;75.14;94680.97;4954920;28;20004;-74
2024/03/23 06:07:45;;;;;;;;;;;;;;;-2.48;75.71;94676.94;4939490;29;20051;-74
2024/03/23 06:10:10;;;;;;;;;;;;;;;-3.16;77.97;94670.78;4939605;28;20021;-72
2024/03/23 06:12:35;;;;;;;;;;;;;;;-3.31;78.75;94675.34;4940896;28;20004;-72
2024/03/23 06:15:00;;;;;;;;;;;;;;;-3.28;79.30;94677.72;4938754;29;19958;-74
2024/03/23 06:17:26;;;;;;;;;;;;;;;-3.12;79.44;94681.78;4940070;28;19956;-75
2024/03/23 06:19:51;;;;;;;;;;;;;;;-3.43;81.21;94690.94;4942708;28;19944;-75
2024/03/23 06:22:16;;;;;;;;;;;;;;;-3.45;81.57;94686.78;4942370;29;20005;-74
2024/03/23 06:24:41;;;;;;;;;;;;;;;-3.60;80.75;94702.59;4943871;28;19951;-74
2024/03/23 06:27:07;;;;;;;;;;;;;;;-3.46;81.43;94721.56;4943618;28;19922;-73
2024/03/23 06:29:32;;;;;;;;;;;;;;;-3.37;81.96;94714.88;4943186;28;19955;-73
2024/03/23 06:31:57;;;;;;;;;;;;;;;-3.22;80.77;94721.53;4943785;28;20505;-73
2024/03/23 06:34:22;;;;;;;;;;;;;;;-3.23;81.50;94722.47;4941642;29;19966;-75
2024/03/23 06:36:48;;;;;;;;;;;;;;;-2.92;80.01;94720.16;4926292;29;19968;-73
2024/03/23 06:39:15;;;;;;;;;;;;;;;-2.97;80.26;94727.50;4943313;28;20099;-73
2024/03/23 06:41:41;;;;;;;;;;;;;;;-2.73;79.12;94730.97;4941487;28;19934;-73
2024/03/23 06:44:06;;;;;;;;;;;;;;;-2.28;77.25;94723.16;4957322;28;20228;-74
2024/03/23 06:46:31;;;;;;;;;;;;;;;-2.79;77.26;94740.06;4943236;28;20067;-75
2024/03/23 06:48:56;;;;;;;;;;;;;;;-2.78;78.57;94726.13;4943300;28;19976;-72
2024/03/23 06:51:22;;;;;;;;;;;;;;;-2.44;77.69;94720.09;4942687;28;19977;-72
2024/03/23 06:53:47;;;;;;;;;;;;;;;-2.28;76.95;94730.97;4942154;28;19960;-75
2024/03/23 06:56:12;;;;;;;;;;;;;;;-2.42;76.36;94736.41;4941581;29;20387;-72
2024/03/23 06:58:37;;;;;;;;;;;;;;;-2.50;77.63;94737.03;4943064;28;20033;-74
2024/03/23 07:01:03;;;;;;;;;;;;;;;-2.14;76.82;94739.50;4942119;29;20088;-74
2024/03/23 07:03:28;;;;;;;;;;;;;;;-1.92;74.53;94741.25;4941040;29;19927;-71
2024/03/23 07:05:57;;;;;;;;;;;;;;;-2.00;75.23;94756.69;4943203;28;20259;-73
2024/03/23 07:08:22;;;;;;;;;;;;;;;-1.88;74.38;94754.88;4942705;29;19926;-72
2024/03/23 07:10:47;;;;;;;;;;;;;;;-1.96;75.20;94755.47;4941443;29;19973;-73
2024/03/23 07:13:13;;;;;;;;;;;;;;;-1.54;73.45;94751.31;4941293;28;19948;-74
2024/03/23 07:15:38;;;;;;;;;;;;;;;-1.57;74.09;94757.63;4942827;29;19930;-74
2024/03/23 07:18:03;;;;;;;;;;;;;;;-1.40;72.78;94753.66;4942807;28;20020;-74
2024/03/23 07:20:30;;;;;;;;;;;;;;;-1.41;72.84;94762.47;4942714;28;20466;-73
2024/03/23 07:22:55;;;;;;;;;;;;;;;-2.00;74.00;94767.94;4940414;28;20001;-75
2024/03/23 07:25:22;;;;;;;;;;;;;;;-1.96;74.48;94765.91;4942387;28;20512;-74
2024/03/23 07:27:47;;;;;;;;;;;;;;;-1.98;74.17;94778.25;4942749;28;20471;-74
2024/03/23 07:30:13;;;;;;;;;;;;;;;-2.03;75.93;94776.00;4956057;28;19937;-72
2024/03/23 07:32:38;;;;;;;;;;;;;;;-2.15;76.24;94776.94;4924607;29;20086;-73
2024/03/23 07:35:04;;;;;;;;;;;;;;;-2.27;76.91;94776.94;4942260;28;19960;-74
2024/03/23 07:37:29;;;;;;;;;;;;;;;-1.60;75.12;94776.16;4957088;28;19954;-73
2024/03/23 07:39:54;;;;;;;;;;;;;;;-1.98;76.01;94780.84;4942401;28;19927;-74
2024/03/23 07:42:19;;;;;;;;;;;;;;;-1.95;75.74;94780.63;4938537;28;20520;-75
2024/03/23 07:44:46;;;;;;;;;;;;;;;-2.30;77.24;94784.19;4940701;29;19927;-73
2024/03/23 07:47:12;;;;;;;;;;;;;;;-2.73;79.78;94790.88;4940175;29;19930;-74
2024/03/23 07:49:37;;;;;;;;;;;;;;;-2.72;79.90;94803.00;4941561;28;20020;-73
2024/03/23 07:52:02;;;;;;;;;;;;;;;-2.59;79.11;94792.44;4940808;28;19941;-74
2024/03/23 07:54:28;;;;;;;;;;;;;;;-2.69;80.23;94787.09;4941377;28;19959;-75
2024/03/23 07:56:55;;;;;;;;;;;;;;;-2.69;80.15;94787.09;4941404;28;21303;-73
2024/03/23 07:59:20;;;;;;;;;;;;;;;-2.74;80.87;94800.50;4940763;28;19979;-75
2024/03/23 08:01:46;;;;;;;;;;;;;;;-2.31;79.54;94806.81;4940165;29;19933;-73
2024/03/23 08:04:11;;;;;;;;;;;;;;;-2.77;80.65;94804.19;4941637;29;20035;-73
2024/03/23 08:06:36;;;;;;;;;;;;;;;-2.60;80.69;94820.31;4941533;28;19982;-73
2024/03/23 08:09:02;;;;;;;;;;;;;;;-2.54;79.55;94806.78;4940456;29;19934;-72
2024/03/23 08:11:27;;;;;;;;;;;;;;;-2.13;79.03;94815.00;4941848;28;20431;-72
2024/03/23 08:13:53;;;;;;;;;;;;;;;-2.12;77.43;94808.03;4941447;28;19963;-73
2024/03/23 08:16:18;;;;;;;;;;;;;;;-1.81;76.76;94815.22;4942506;28;19952;-73
2024/03/23 08:18:44;;;;;;;;;;;;;;;-2.18;77.02;94824.13;4941259;28;20661;-73
2024/03/23 08:21:09;;;;;;;;;;;;;;;-2.42;78.99;94820.69;4939994;29;19933;-72
2024/03/23 08:23:37;;;;;;;;;;;;;;;-2.51;78.65;94813.59;4941066;28;20007;-72
2024/03/23 08:26:03;;;;;;;;;;;;;;;-2.29;77.59;94817.13;4939903;29;19989;-72
2024/03/23 08:28:28;;;;;;;;;;;;;;;-2.61;78.00;94826.47;4941956;28;20785;-72
2024/03/23 08:30:54;;;;;;;;;;;;;;;-2.40;78.87;94821.41;4939912;29;19965;-73
2024/03/23 08:33:19;;;;;;;;;;;;;;;-2.43;78.63;94831.22;4941722;29;19961;-72
2024/03/23 08:35:55;;;;;;;;;;;;;;;-2.00;77.58;94821.91;4926099;28;19933;-72
2024/03/23 08:38:20;;;;;;;;;;;;;;;-1.78;75.94;94821.06;4926351;28;20021;-73
2024/03/23 08:40:45;;;;;;;;;;;;;;;-2.00;75.36;94811.47;4928564;29;20607;-73
2024/03/23 08:43:11;;;;;;;;;;;;;;;-1.26;74.59;94811.78;4938276;28;19977;-73
2024/03/23 08:45:36;;;;;;;;;;;;;;;-1.52;72.31;94825.16;4940681;28;19931;-72
2024/03/23 08:48:01;;;;;;;;;;;;;;;-1.61;72.87;94826.72;4941480;29;20403;-72
2024/03/23 08:50:26;;;;;;;;;;;;;;;-1.92;74.01;94810.84;4940708;28;19948;-73
2024/03/23 08:52:52;;;;;;;;;;;;;;;-1.93;75.56;94830.06;4955572;28;19956;-73
2024/03/23 08:55:17;;;;;;;;;;;;;;;-1.98;74.17;94830.44;4941363;28;20009;-67
2024/03/23 08:57:42;;;;;;;;;;;;;;;-1.94;73.31;94825.81;4941337;28;19988;-73
2024/03/23 09:00:08;;;;;;;;;;;;;;;-1.40;72.36;94841.59;4940695;29;19979;-72
2024/03/23 09:02:34;;;;;;;;;;;;;;;-1.28;71.25;94819.75;4939973;28;19976;-73
2024/03/23 09:05:04;;;;;;;;;;;;;;;-0.99;71.32;94821.78;4940781;28;21130;-73
2024/03/23 09:07:29;;;;;;;;;;;;;;;-0.25;68.80;94821.88;4941040;28;19926;-73
2024/03/23 09:09:54;;;;;;;;;;;;;;;-0.12;68.64;94811.19;4955254;28;19930;-73
2024/03/23 09:12:20;;;;;;;;;;;;;;;-0.16;68.16;94817.66;4941286;28;20405;-73
2024/03/23 09:14:45;;;;;;;;;;;;;;;-0.12;67.13;94820.81;4940781;28;19930;-76
2024/03/23 09:17:10;;;;;;;;;;;;;;;0.44;65.48;94826.50;4941204;28;19926;-76
2024/03/23 09:19:35;;;;;;;;;;;;;;;0.32;63.86;94813.56;4940195;28;20554;-72
2024/03/23 09:22:01;;;;;;;;;;;;;;;-0.30;65.46;94818.81;4940468;28;19993;-72
2024/03/23 09:24:26;;;;;;;;;;;;;;;-0.07;64.93;94806.38;4939322;29;19994;-72
2024/03/23 09:26:52;;;;;;;;;;;;;;;-0.15;66.77;94821.91;4939575;28;19930;-72
2024/03/23 09:29:17;;;;;;;;;;;;;;;-0.98;66.95;94826.03;4939145;28;20691;-71
2024/03/23 09:31:42;;;;;;;;;;;;;;;-0.66;68.16;94813.09;4940611;28;19964;-73
2024/03/23 09:34:07;;;;;;;;;;;;;;;-0.35;67.62;94813.13;4939848;28;19961;-72
2024/03/23 09:36:33;;;;;;;;;;;;;;;-0.05;65.51;94806.25;4940734;28;19964;-72
2024/03/23 09:38:58;;;;;;;;;;;;;;;-0.21;67.09;94818.03;4940101;28;20049;-72
2024/03/23 09:41:23;;;;;;;;;;;;;;;-0.03;67.66;94809.56;4939519;28;19937;-72
2024/03/23 09:43:52;;;;;;;;;;;;;;;-0.24;66.27;94822.72;4939420;29;20271;-74
2024/03/23 09:46:17;;;;;;;;;;;;;;;-0.53;68.17;94813.72;4939360;28;20535;-77
2024/03/23 09:48:42;;;;;;;;;;;;;;;-0.79;66.07;94831.56;4940874;29;20036;-75
2024/03/23 09:51:08;;;;;;;;;;;;;;;-0.91;65.54;94820.34;4938001;28;19996;-76
2024/03/23 09:53:34;;;;;;;;;;;;;;;-0.90;64.73;94830.69;4940681;28;19930;-74
2024/03/23 09:55:59;;;;;;;;;;;;;;;-0.56;65.55;94808.75;4944279;29;20461;-75
2024/03/23 09:58:24;;;;;;;;;;;;;;;-0.48;62.49;94816.78;4943900;28;19980;-75
2024/03/23 10:00:49;;;;;;;;;;;;;;;-0.26;63.38;94817.59;4943441;28;20025;-74
2024/03/23 10:03:15;;;;;;;;;;;;;;;-0.06;64.69;94800.19;4943456;28;19984;-77
2024/03/23 10:05:40;;;;;;;;;;;;;;;-0.57;60.67;94809.72;4943678;28;19926;-74
2024/03/23 10:08:14;;;;;;;;;;;;;;;-0.67;63.74;94800.97;4942240;29;19927;-77
2024/03/23 10:10:43;;;;;;;;;;;;;;;-0.59;60.34;94809.00;4940922;28;19980;-75
2024/03/23 10:13:08;;;;;;;;;;;;;;;-0.28;62.32;94806.41;4943431;29;19926;-75
2024/03/23 10:15:33;;;;;;;;;;;;;;;-0.54;60.78;94803.41;4943270;28;19961;-77
2024/03/23 10:17:59;;;;;;;;;;;;;;;-0.19;59.92;94804.81;4957987;28;19926;-75
2024/03/23 10:20:24;;;;;;;;;;;;;;;-0.42;60.07;94791.91;4941928;29;19972;-74
2024/03/23 10:22:50;;;;;;;;;;;;;;;-0.39;61.41;94788.19;4927717;28;19985;-74
2024/03/23 10:25:15;;;;;;;;;;;;;;;-1.72;70.42;94823.16;4923641;29;19934;-75
2024/03/23 10:27:40;;;;;;;;;;;;;;;-2.52;76.97;94823.16;4922202;29;19931;-74
2024/03/23 10:30:09;;;;;;;;;;;;;;;-1.97;80.10;94829.47;4923444;29;19927;-73
2024/03/23 10:32:35;;;;;;;;;;;;;;;-1.64;81.34;94811.28;4923773;29;19973;-73
2024/03/23 10:35:22;;;;;;;;;;;;;;;-1.32;78.95;94805.28;4924468;29;20384;-72
2024/03/23 10:37:47;;;;;;;;;;;;;;;-1.27;77.99;94800.50;4921348;29;19930;-73
2024/03/23 10:40:12;;;;;;;;;;;;;;;-0.66;76.48;94802.63;4922974;29;19950;-74
2024/03/23 10:42:38;;;;;;;;;;;;;;;-0.22;75.97;94792.00;4936627;28;19930;-74
2024/03/23 10:45:07;;;;;;;;;;;;;;;0.24;72.56;94795.03;4945174;28;19938;-73
2024/03/23 10:47:33;;;;;;;;;;;;;;;-0.22;70.85;94807.69;4940996;29;20572;-72
2024/03/23 10:49:59;;;;;;;;;;;;;;;-0.60;72.92;94808.16;4940423;28;20713;-73
2024/03/23 10:52:24;;;;;;;;;;;;;;;-1.13;71.80;94822.06;4942752;28;19970;-74
2024/03/23 10:54:50;;;;;;;;;;;;;;;-0.66;73.50;94807.84;4939790;28;20391;-73
2024/03/23 10:57:17;;;;;;;;;;;;;;;-0.34;73.13;94807.78;4942628;28;20422;-71
2024/03/23 10:59:42;;;;;;;;;;;;;;;-0.19;74.73;94789.94;4941069;29;19915;-73
2024/03/23 11:02:08;;;;;;;;;;;;;;;0.41;72.26;94795.38;4956771;28;19926;-73
2024/03/23 11:04:34;;;;;;;;;;;;;;;0.69;72.64;94798.16;4939772;28;19934;-71
2024/03/23 11:06:59;;;;;;;;;;;;;;;1.11;72.41;94768.22;4942796;28;19926;-69
2024/03/23 11:09:40;;;;;;;;;;;;;;;0.50;66.65;94781.47;4941658;28;19985;-73
2024/03/23 11:12:25;;;;;;;;;;;;;;;0.17;72.18;94778.22;4941982;29;19966;-74
2024/03/23 11:14:51;;;;;;;;;;;;;;;-0.07;66.97;94780.22;4942109;28;20565;-73
2024/03/23 11:17:19;;;;;;;;;;;;;;;0.58;68.24;94778.19;4941732;28;20024;-73
2024/03/23 11:19:44;;;;;;;;;;;;;;;-0.21;69.56;94785.78;4942227;28;19972;-71
2024/03/23 11:22:10;;;;;;;;;;;;;;;-0.88;70.05;94820.91;4940710;28;19934;-75
2024/03/23 11:24:35;;;;;;;;;;;;;;;-1.38;70.36;94808.38;4942671;28;19965;-74
2024/03/23 11:27:03;;;;;;;;;;;;;;;-2.06;70.41;94825.81;4942304;28;20017;-71
2024/03/23 11:29:29;;;;;;;;;;;;;;;-2.03;70.08;94799.47;4941497;28;20000;-74
2024/03/23 11:31:54;;;;;;;;;;;;;;;-1.69;67.38;94789.94;4941409;29;20520;-72
2024/03/23 11:34:20;;;;;;;;;;;;;;;-1.72;67.15;94781.41;4942704;28;19933;-75
2024/03/23 11:36:45;;;;;;;;;;;;;;;-1.48;65.34;94803.91;4942889;28;20013;-78
2024/03/23 11:39:16;;;;;;;;;;;;;;;-1.30;66.38;94826.03;4941849;28;19929;-73
2024/03/23 11:41:47;;;;;;;;;;;;;;;-2.17;67.97;94851.91;4939800;28;19965;-75
2024/03/23 11:44:19;;;;;;;;;;;;;;;-3.03;70.28;94859.03;4940953;28;19949;-76
2024/03/23 11:46:44;;;;;;;;;;;;;;;-3.92;77.05;94859.22;4939685;29;20013;-75
2024/03/23 11:49:21;;;;;;;;;;;;;;;-4.15;80.17;94882.44;4941962;28;20025;-74
2024/03/23 11:51:47;;;;;;;;;;;;;;;-3.93;81.98;94854.97;4941572;29;20330;-72
2024/03/23 11:54:12;;;;;;;;;;;;;;;-3.42;81.94;94868.78;4944157;28;19933;-75
2024/03/23 11:56:37;;;;;;;;;;;;;;;-3.91;83.22;94859.13;4941800;29;20392;-75
2024/03/23 11:59:02;;;;;;;;;;;;;;;-3.07;83.65;94862.81;4941516;28;20466;-75
2024/03/23 12:01:27;;;;;;;;;;;;;;;-3.04;82.38;94873.00;4940513;28;19922;-75
2024/03/23 12:03:53;;;;;;;;;;;;;;;-2.72;82.68;94865.53;4940436;29;19922;-76
2024/03/23 12:06:19;;;;;;;;;;;;;;;-2.30;81.32;94839.81;4941896;28;20045;-78
2024/03/23 12:08:44;;;;;;;;;;;;;;;-1.88;78.71;94822.72;4940075;29;20435;-75
2024/03/23 12:11:11;;;;;;;;;;;;;;;-1.41;76.58;94829.50;4941535;28;19930;-74
2024/03/23 12:13:36;;;;;;;;;;;;;;;-1.60;72.63;94820.53;4941366;28;19977;-76
2024/03/23 12:16:17;;;;;;;;;;;;;;;-2.31;73.02;94819.06;4941745;28;20323;-73
2024/03/23 12:18:43;;;;;;;;;;;;;;;-1.24;73.13;94830.78;4940289;28;19933;-72
2024/03/23 12:21:08;;;;;;;;;;;;;;;-0.91;69.81;94817.75;4941747;29;19926;-76
2024/03/23 12:23:34;;;;;;;;;;;;;;;-1.54;68.25;94824.44;4941108;28;20327;-74
2024/03/23 12:25:59;;;;;;;;;;;;;;;-1.78;69.58;94823.66;4940794;28;19989;-75
2024/03/23 12:28:25;;;;;;;;;;;;;;;-2.38;70.26;94840.38;4941837;28;19926;-72
2024/03/23 12:30:50;;;;;;;;;;;;;;;-2.62;70.62;94871.72;4941428;28;20376;-74
2024/03/23 12:33:16;;;;;;;;;;;;;;;-2.60;70.90;94835.13;4941068;28;19927;-74
2024/03/23 12:35:41;;;;;;;;;;;;;;;-2.55;71.13;94819.97;4941511;28;19950;-76
2024/03/23 12:38:07;;;;;;;;;;;;;;;-1.90;69.82;94811.56;4941564;28;19927;-75
2024/03/23 12:40:32;;;;;;;;;;;;;;;-1.74;67.88;94845.13;4939559;29;20096;-73
2024/03/23 12:42:57;;;;;;;;;;;;;;;-1.68;69.76;94815.94;4942237;28;19930;-76